East Berne, New York
Current Conditions -  °F | °C
As of 4:21 PM on Friday 24 Oct 2014 (Local Time) from KALB Reporting Station
Overcast Overcast  
Wind Chill:   Ceiling: 3500
Heat Index:   Visibility: 10mi
Dew Point:   Wind: 8mph
Humidity: 86%   Direction: 20°NNE
Pressure: 29.82"   Gusts: NA
Location:  42.62°N, 74.07°W
Report Text: KALB 242021Z 02007KT 10SM SCT008 OVC035 09/07 A2982 RMK AO2 T00890067 $
Loading
Personal Weather Stations






























Interactive Weather Map
Tropical Storm Tracking
New forecast layout! Learn more

10-Day Weather Forecast

Advertisements
Track Severe Weather on mobile